createdAt,value
2022-08-19T00:02:01.583Z,14.77
2022-08-19T00:04:32.310Z,12.93
2022-08-19T00:07:01.597Z,12.53
2022-08-19T00:09:31.211Z,13.43
2022-08-19T00:11:59.787Z,12.43
2022-08-19T00:14:28.649Z,13.67
2022-08-19T00:16:57.002Z,13.53
2022-08-19T00:19:25.692Z,14.07
2022-08-19T00:21:54.016Z,12.80
2022-08-19T00:24:22.014Z,14.10
2022-08-19T00:26:51.359Z,12.90
2022-08-19T00:29:22.139Z,14.10
2022-08-19T00:31:51.121Z,15.40
2022-08-19T00:34:19.040Z,15.30
2022-08-19T00:36:47.629Z,15.33
2022-08-19T00:39:17.316Z,14.17
2022-08-19T00:41:48.528Z,14.63
2022-08-19T00:44:20.283Z,13.60
2022-08-19T00:46:55.370Z,13.57
2022-08-19T00:49:31.623Z,12.47
2022-08-19T00:52:03.555Z,13.60
2022-08-19T00:54:32.505Z,13.53
2022-08-19T00:57:01.816Z,14.47
2022-08-19T01:00:00.325Z,13.50
2022-08-19T01:02:20.134Z,13.50
2022-08-19T01:04:48.933Z,15.13
2022-08-19T01:07:19.721Z,13.90
2022-08-19T01:09:48.035Z,14.90
2022-08-19T01:12:16.400Z,13.67
2022-08-19T01:14:46.908Z,17.87
2022-08-19T01:17:16.046Z,15.43
2022-08-19T01:19:45.511Z,14.33
2022-08-19T01:22:23.346Z,17.40
2022-08-19T01:24:57.079Z,15.47
2022-08-19T01:27:24.987Z,15.33
2022-08-19T01:29:52.950Z,14.40
2022-08-19T01:32:33.557Z,13.80
2022-08-19T01:35:03.640Z,15.50
2022-08-19T01:37:32.654Z,15.47
2022-08-19T01:40:05.295Z,13.50
2022-08-19T01:42:36.138Z,13.33
2022-08-19T01:45:04.154Z,15.90
2022-08-19T01:47:32.017Z,14.37
2022-08-19T01:50:00.554Z,14.10
2022-08-19T01:52:28.910Z,13.60
2022-08-19T01:54:56.940Z,14.30
2022-08-19T01:57:27.132Z,14.40
2022-08-19T01:59:55.123Z,16.93
2022-08-19T02:02:23.065Z,15.17
2022-08-19T02:04:51.199Z,15.00
2022-08-19T02:07:22.215Z,15.70
2022-08-19T02:09:50.293Z,17.87
2022-08-19T02:12:18.324Z,14.80
2022-08-19T02:14:47.603Z,14.77
2022-08-19T02:17:15.719Z,15.13
2022-08-19T02:19:44.182Z,15.27
2022-08-19T02:22:12.081Z,14.00
2022-08-19T02:24:39.997Z,12.83
2022-08-19T02:27:08.257Z,14.90
2022-08-19T02:29:36.580Z,14.47
2022-08-19T02:32:06.356Z,12.90
2022-08-19T02:34:34.235Z,15.10
2022-08-19T02:37:03.883Z,14.53
2022-08-19T02:39:31.024Z,14.70
2022-08-19T02:42:00.694Z,14.43
2022-08-19T02:44:31.840Z,15.50
2022-08-19T02:47:00.202Z,15.70
2022-08-19T02:49:29.494Z,16.10
2022-08-19T02:52:02.788Z,14.50
2022-08-19T02:54:31.277Z,14.30
2022-08-19T02:56:59.444Z,14.07
2022-08-19T02:59:27.532Z,12.93
2022-08-19T03:01:55.615Z,15.57
2022-08-19T03:04:23.960Z,15.40
2022-08-19T03:06:56.758Z,15.10
2022-08-19T03:09:26.349Z,14.60
2022-08-19T03:11:54.335Z,14.77
2022-08-19T03:14:22.262Z,13.40
2022-08-19T03:16:52.387Z,14.27
2022-08-19T03:19:22.196Z,14.13
2022-08-19T03:21:50.583Z,14.83
2022-08-19T03:24:21.098Z,14.20
2022-08-19T03:26:51.190Z,15.50
2022-08-19T03:29:30.078Z,15.90
2022-08-19T03:31:59.687Z,13.90
2022-08-19T03:34:31.996Z,15.47
2022-08-19T03:37:06.668Z,15.37
2022-08-19T03:39:37.899Z,14.80
2022-08-19T03:42:38.859Z,13.00
2022-08-19T03:44:54.594Z,14.40
2022-08-19T03:47:22.519Z,13.20
2022-08-19T03:49:50.432Z,14.27
2022-08-19T03:52:18.306Z,15.60
2022-08-19T03:54:47.531Z,15.47
2022-08-19T03:57:15.418Z,13.90
2022-08-19T03:59:43.304Z,15.23
2022-08-19T04:02:13.266Z,16.47
2022-08-19T04:04:42.655Z,15.07
2022-08-19T04:07:12.189Z,15.20
2022-08-19T04:09:40.152Z,15.30
2022-08-19T04:12:10.820Z,14.43
2022-08-19T04:14:38.798Z,15.43
2022-08-19T04:17:06.937Z,15.10
2022-08-19T04:19:35.961Z,14.60
2022-08-19T04:22:05.005Z,16.67
2022-08-19T04:24:33.747Z,16.63
2022-08-19T04:27:01.934Z,13.60
2022-08-19T04:29:31.519Z,13.20
2022-08-19T04:32:08.321Z,14.43
2022-08-19T04:35:02.128Z,14.57
2022-08-19T04:37:27.419Z,14.90
2022-08-19T04:40:14.832Z,15.60
2022-08-19T04:42:42.848Z,12.73
2022-08-19T04:45:15.433Z,14.23
2022-08-19T04:47:47.592Z,12.27
2022-08-19T04:50:26.006Z,13.87
2022-08-19T04:52:54.309Z,16.20
2022-08-19T04:55:22.515Z,14.47
2022-08-19T04:57:52.213Z,16.17
2022-08-19T05:00:21.732Z,16.13
2022-08-19T05:02:50.323Z,14.13
2022-08-19T05:05:18.558Z,13.50
2022-08-19T05:07:46.475Z,16.43
2022-08-19T05:10:14.424Z,16.63
2022-08-19T05:12:42.584Z,15.80
2022-08-19T05:15:11.336Z,14.47
2022-08-19T05:18:01.148Z,13.73
2022-08-19T05:20:46.518Z,13.40
2022-08-19T05:23:22.084Z,13.30
2022-08-19T05:25:51.162Z,13.13
2022-08-19T05:28:19.368Z,13.50
2022-08-19T05:30:47.924Z,14.67
2022-08-19T05:33:17.325Z,13.70
2022-08-19T05:35:45.563Z,14.10
2022-08-19T05:38:13.636Z,13.60
2022-08-19T05:40:42.443Z,13.70
2022-08-19T05:43:10.958Z,12.00
2022-08-19T05:45:43.032Z,12.27
2022-08-19T05:48:12.311Z,11.40
2022-08-19T05:50:42.838Z,11.47
2022-08-19T05:53:11.116Z,12.17
2022-08-19T05:55:40.508Z,12.97
2022-08-19T05:58:08.981Z,12.90
2022-08-19T06:00:37.135Z,13.00
2022-08-19T06:03:12.390Z,14.30
2022-08-19T06:05:49.765Z,14.73
2022-08-19T06:08:21.222Z,14.50
2022-08-19T06:11:16.273Z,14.00
2022-08-19T06:13:46.057Z,13.47
2022-08-19T06:16:13.985Z,15.17
2022-08-19T06:18:41.910Z,13.00
2022-08-19T06:21:11.205Z,16.33
2022-08-19T06:23:39.938Z,15.83
2022-08-19T06:26:08.932Z,17.10
2022-08-19T06:28:36.830Z,13.50
2022-08-19T06:31:08.886Z,15.60
2022-08-19T06:33:36.897Z,16.73
2022-08-19T06:36:05.340Z,14.47
2022-08-19T06:38:35.352Z,15.87
2022-08-19T06:41:07.723Z,16.03
2022-08-19T06:43:37.142Z,17.00
2022-08-19T06:46:14.748Z,15.63
2022-08-19T06:48:45.928Z,14.10
2022-08-19T06:51:16.666Z,13.50
2022-08-19T06:56:25.970Z,12.80
2022-08-19T06:58:54.105Z,13.30
2022-08-19T07:01:22.537Z,14.63
2022-08-19T07:03:50.714Z,16.13
2022-08-19T07:09:18.372Z,14.93
2022-08-19T07:11:47.904Z,18.00
2022-08-19T07:14:19.542Z,15.60
2022-08-19T07:16:49.699Z,14.47
2022-08-19T07:19:18.859Z,12.80
2022-08-19T07:21:48.617Z,13.60
2022-08-19T07:24:18.820Z,12.70
2022-08-19T07:26:47.366Z,12.20
2022-08-19T07:29:25.634Z,12.03
2022-08-19T07:31:59.916Z,13.30
2022-08-19T07:34:29.890Z,13.77
2022-08-19T07:36:59.274Z,13.47
2022-08-19T07:39:30.918Z,12.13
2022-08-19T07:42:00.607Z,12.50
2022-08-19T07:44:29.119Z,13.00
2022-08-19T07:46:59.841Z,10.97
2022-08-19T07:49:27.851Z,11.53
2022-08-19T07:51:58.390Z,11.03
2022-08-19T07:54:29.970Z,12.80
2022-08-19T07:56:58.240Z,13.07
2022-08-19T07:59:26.878Z,12.73
2022-08-19T08:01:54.935Z,12.50
2022-08-19T08:04:40.621Z,11.50
2022-08-19T08:07:31.659Z,12.63
2022-08-19T08:10:02.921Z,13.17
2022-08-19T08:12:35.465Z,12.40
2022-08-19T08:15:12.729Z,12.93
2022-08-19T08:17:49.310Z,12.60
2022-08-19T08:20:20.674Z,13.10
2022-08-19T08:23:07.164Z,11.63
2022-08-19T08:25:38.358Z,11.07
2022-08-19T08:28:06.318Z,10.43
2022-08-19T08:30:36.811Z,12.43
2022-08-19T08:33:06.471Z,11.63
2022-08-19T08:35:35.312Z,10.53
2022-08-19T08:38:04.631Z,11.33
2022-08-19T08:40:40.918Z,10.70
2022-08-19T08:43:16.076Z,10.50
2022-08-19T08:45:53.475Z,10.77
2022-08-19T08:48:26.825Z,9.20
2022-08-19T08:50:56.784Z,9.33
2022-08-19T08:53:29.606Z,8.03
2022-08-19T08:56:03.903Z,7.93
2022-08-19T08:58:42.905Z,8.70
2022-08-19T09:01:13.076Z,7.50
2022-08-19T09:03:44.033Z,5.83
2022-08-19T09:06:20.381Z,5.43
2022-08-19T09:09:04.662Z,5.70
2022-08-19T09:11:52.344Z,6.60
2022-08-19T09:14:52.311Z,5.70
2022-08-19T09:17:29.035Z,5.40
2022-08-19T09:19:59.114Z,4.83
2022-08-19T09:22:27.687Z,5.97
2022-08-19T09:24:56.660Z,4.53
2022-08-19T09:27:42.130Z,5.10
2022-08-19T09:30:14.593Z,4.97
2022-08-19T09:32:44.413Z,4.60
2022-08-19T09:35:13.497Z,5.00
2022-08-19T09:37:41.751Z,4.30
2022-08-19T09:40:12.728Z,4.17
2022-08-19T09:42:50.222Z,4.90
2022-08-19T09:45:23.648Z,3.83
2022-08-19T09:47:54.264Z,3.60
2022-08-19T09:50:24.163Z,3.70
2022-08-19T09:52:57.428Z,3.27
2022-08-19T09:55:31.639Z,3.67
2022-08-19T09:58:03.105Z,3.30
2022-08-19T10:00:31.976Z,3.33
2022-08-19T10:03:00.142Z,2.90
2022-08-19T10:05:48.634Z,3.10
2022-08-19T10:08:17.827Z,3.10
2022-08-19T10:10:47.083Z,2.80
2022-08-19T10:13:18.262Z,3.40
2022-08-19T10:15:48.082Z,2.80
2022-08-19T10:18:19.189Z,3.00
2022-08-19T10:20:51.831Z,2.93
2022-08-19T10:23:21.422Z,3.43
2022-08-19T10:25:49.867Z,3.23
2022-08-19T10:28:19.730Z,2.80
2022-08-19T10:30:48.885Z,3.17
2022-08-19T10:33:38.249Z,3.10
2022-08-19T10:36:07.166Z,3.17
2022-08-19T10:38:36.110Z,3.40
2022-08-19T10:41:13.197Z,3.10
2022-08-19T10:43:43.689Z,3.70
2022-08-19T10:46:16.643Z,3.37
2022-08-19T10:48:46.682Z,3.07
2022-08-19T10:51:33.343Z,3.13
2022-08-19T10:54:02.899Z,2.73
2022-08-19T10:56:53.040Z,3.53
2022-08-19T10:59:26.892Z,3.80
2022-08-19T11:01:56.774Z,2.87
2022-08-19T11:04:29.489Z,3.20
2022-08-19T11:06:57.894Z,3.10
2022-08-19T11:09:33.554Z,3.43
2022-08-19T11:12:02.827Z,2.93
2022-08-19T11:14:34.884Z,3.20
2022-08-19T11:17:03.688Z,3.10
2022-08-19T11:19:31.998Z,2.80
2022-08-19T11:22:00.638Z,3.00
2022-08-19T11:24:29.424Z,3.50
2022-08-19T11:27:05.390Z,3.20
2022-08-19T11:29:35.748Z,2.87
2022-08-19T11:32:06.624Z,3.00
2022-08-19T11:34:36.307Z,2.07
2022-08-19T11:37:05.200Z,2.20
2022-08-19T11:39:34.732Z,2.30
2022-08-19T11:42:03.554Z,2.70
2022-08-19T11:44:31.695Z,2.40
2022-08-19T11:47:08.724Z,1.93
2022-08-19T11:49:37.305Z,1.80
2022-08-19T11:52:05.543Z,2.10
2022-08-19T11:54:33.661Z,2.30
2022-08-19T11:57:02.113Z,1.80
2022-08-19T11:59:30.256Z,1.93
2022-08-19T12:01:58.766Z,2.17
2022-08-19T12:04:28.025Z,2.37
2022-08-19T12:06:55.901Z,1.50
2022-08-19T12:09:24.099Z,2.20
2022-08-19T12:11:52.835Z,2.00
2022-08-19T12:14:20.699Z,1.93
2022-08-19T12:16:51.307Z,2.60
2022-08-19T12:19:21.695Z,2.07
2022-08-19T12:21:53.990Z,2.30
2022-08-19T12:24:24.326Z,2.10
2022-08-19T12:26:53.997Z,1.57
2022-08-19T12:29:29.352Z,1.67
2022-08-19T12:32:01.546Z,1.90
2022-08-19T12:34:31.777Z,1.90
2022-08-19T12:37:03.277Z,1.40
2022-08-19T12:39:32.185Z,2.03
2022-08-19T12:42:00.280Z,2.30
2022-08-19T12:44:29.573Z,1.67
2022-08-19T12:47:00.800Z,2.47
2022-08-19T12:49:52.618Z,1.80
2022-08-19T12:52:23.184Z,2.00
2022-08-19T12:54:54.395Z,1.57
2022-08-19T12:57:31.442Z,1.40
2022-08-19T13:00:00.853Z,2.00
2022-08-19T13:02:28.777Z,1.70
2022-08-19T13:04:57.792Z,2.20
2022-08-19T13:07:27.090Z,1.90
2022-08-19T13:09:54.954Z,2.47
2022-08-19T13:12:25.253Z,2.03
2022-08-19T13:14:53.315Z,2.30
2022-08-19T13:17:21.592Z,1.90
2022-08-19T13:19:49.748Z,2.17
2022-08-19T13:22:18.044Z,2.23
2022-08-19T13:24:47.699Z,2.43
2022-08-19T13:27:16.212Z,2.30
2022-08-19T13:30:02.092Z,2.00
2022-08-19T13:32:49.207Z,1.77
2022-08-19T13:35:18.704Z,2.43
2022-08-19T13:37:46.734Z,2.50
2022-08-19T13:40:19.854Z,2.10
2022-08-19T13:42:50.075Z,1.90
2022-08-19T13:45:21.216Z,2.50
2022-08-19T13:47:49.676Z,2.07
2022-08-19T13:50:19.442Z,1.77
2022-08-19T13:52:48.374Z,2.27
2022-08-19T13:55:22.180Z,2.03
2022-08-19T13:57:54.043Z,2.10
2022-08-19T14:00:24.859Z,2.00
2022-08-19T14:02:54.858Z,2.20
2022-08-19T14:05:23.609Z,2.67
2022-08-19T14:07:51.935Z,1.97
2022-08-19T14:10:22.014Z,2.47
2022-08-19T14:12:49.896Z,2.17
2022-08-19T14:15:18.006Z,2.47
2022-08-19T14:17:47.641Z,2.60
2022-08-19T14:20:17.739Z,2.50
2022-08-19T14:22:48.416Z,1.90
2022-08-19T14:25:19.746Z,2.40
2022-08-19T14:27:49.815Z,2.70
2022-08-19T14:30:21.124Z,2.53
2022-08-19T14:32:49.115Z,2.00
2022-08-19T14:35:17.861Z,2.60
2022-08-19T14:37:47.524Z,2.60
2022-08-19T14:40:17.746Z,2.47
2022-08-19T14:42:45.912Z,2.40
2022-08-19T14:45:15.194Z,2.60
2022-08-19T14:47:43.167Z,2.50
2022-08-19T14:50:18.409Z,2.60
2022-08-19T14:52:46.742Z,2.50
2022-08-19T14:55:14.708Z,2.90
2022-08-19T14:57:43.453Z,2.60
2022-08-19T15:00:13.967Z,2.50
2022-08-19T15:02:45.089Z,2.83
2022-08-19T15:05:13.599Z,2.60
2022-08-19T15:07:42.354Z,2.57
2022-08-19T15:10:13.465Z,2.20
2022-08-19T15:12:43.315Z,2.37
2022-08-19T15:15:14.513Z,2.80
2022-08-19T15:17:46.561Z,2.33
2022-08-19T15:20:16.901Z,2.60
2022-08-19T15:22:44.845Z,2.60
2022-08-19T15:25:16.039Z,2.10
2022-08-19T15:27:44.384Z,2.40
2022-08-19T15:30:13.724Z,2.60
2022-08-19T15:32:46.230Z,2.23
2022-08-19T15:35:18.261Z,2.33
2022-08-19T15:37:46.398Z,2.17
2022-08-19T15:40:14.388Z,2.13
2022-08-19T15:42:43.568Z,2.10
2022-08-19T15:45:11.995Z,2.37
2022-08-19T15:47:41.007Z,2.20
2022-08-19T15:50:13.071Z,2.70
2022-08-19T15:52:49.332Z,2.23
2022-08-19T15:55:32.267Z,2.50
2022-08-19T15:58:28.355Z,2.33
2022-08-19T16:01:30.347Z,2.50
2022-08-19T16:04:19.749Z,2.30
2022-08-19T16:06:51.208Z,2.23
2022-08-19T16:09:26.493Z,2.10
2022-08-19T16:11:57.240Z,2.60
2022-08-19T16:14:30.112Z,2.50
2022-08-19T16:16:58.103Z,2.07
2022-08-19T16:19:26.395Z,2.03
2022-08-19T16:21:57.549Z,2.30
2022-08-19T16:24:27.864Z,2.60
2022-08-19T16:26:56.859Z,2.40
2022-08-19T16:29:34.468Z,2.10
2022-08-19T16:32:12.575Z,2.60
2022-08-19T16:34:41.921Z,2.60
2022-08-19T16:37:11.398Z,2.10
2022-08-19T16:39:39.575Z,2.00
2022-08-19T16:42:10.117Z,2.53
2022-08-19T16:44:41.295Z,2.30
2022-08-19T16:47:09.557Z,2.80
2022-08-19T16:49:53.749Z,1.97
2022-08-19T16:52:26.289Z,2.40
2022-08-19T16:54:54.295Z,2.10
2022-08-19T16:57:23.819Z,2.27
2022-08-19T16:59:52.478Z,2.30
2022-08-19T17:02:22.561Z,2.57
2022-08-19T17:04:57.395Z,2.50
2022-08-19T17:07:28.348Z,2.30
2022-08-19T17:09:56.973Z,2.47
2022-08-19T17:12:31.717Z,2.57
2022-08-19T17:15:02.190Z,2.60
2022-08-19T17:17:31.010Z,2.93
2022-08-19T17:20:00.258Z,2.87
2022-08-19T17:22:30.187Z,2.53
2022-08-19T17:24:58.764Z,2.70
2022-08-19T17:27:32.215Z,2.33
2022-08-19T17:30:02.368Z,2.73
2022-08-19T17:32:30.675Z,3.73
2022-08-19T17:34:58.807Z,2.60
2022-08-19T17:37:26.740Z,2.80
2022-08-19T17:39:56.228Z,2.70
2022-08-19T17:42:24.411Z,2.87
2022-08-19T17:44:52.311Z,2.47
2022-08-19T17:47:21.202Z,2.90
2022-08-19T17:49:49.138Z,2.63
2022-08-19T17:52:17.162Z,2.13
2022-08-19T17:54:45.433Z,2.10
2022-08-19T17:57:15.054Z,2.57
2022-08-19T17:59:42.985Z,2.77
2022-08-19T18:02:12.357Z,2.40
2022-08-19T18:04:43.394Z,2.43
2022-08-19T18:07:13.400Z,2.63
2022-08-19T18:09:49.227Z,2.40
2022-08-19T18:12:24.525Z,2.00
2022-08-19T18:14:52.581Z,2.53
2022-08-19T18:17:23.210Z,2.70
2022-08-19T18:19:51.341Z,2.50
2022-08-19T18:22:26.915Z,2.30
2022-08-19T18:24:55.579Z,2.10
2022-08-19T18:27:24.969Z,2.57
2022-08-19T18:29:54.503Z,2.23
2022-08-19T18:32:23.706Z,2.43
2022-08-19T18:34:53.068Z,2.57
2022-08-19T18:37:21.953Z,2.50
2022-08-19T18:40:07.668Z,3.00
2022-08-19T18:42:54.594Z,2.37
2022-08-19T18:45:43.614Z,2.20
2022-08-19T18:48:29.471Z,3.40
2022-08-19T18:50:58.737Z,2.33
2022-08-19T18:53:29.980Z,2.20
2022-08-19T18:55:59.448Z,2.60
2022-08-19T18:58:33.983Z,2.77
2022-08-19T19:01:09.105Z,2.70
2022-08-19T19:03:37.738Z,2.53
2022-08-19T19:06:07.171Z,2.60
2022-08-19T19:08:35.658Z,2.50
2022-08-19T19:11:05.965Z,2.90
2022-08-19T19:13:37.031Z,2.53
2022-08-19T19:16:05.519Z,2.70
2022-08-19T19:18:34.334Z,2.83
2022-08-19T19:21:02.220Z,2.33
2022-08-19T19:23:30.170Z,2.30
2022-08-19T19:25:58.373Z,2.77
2022-08-19T19:28:28.685Z,2.30
2022-08-19T19:30:58.765Z,3.10
2022-08-19T19:33:26.992Z,2.30
2022-08-19T19:35:55.180Z,2.97
2022-08-19T19:38:23.220Z,3.23
2022-08-19T19:40:51.139Z,3.23
2022-08-19T19:43:19.172Z,3.33
2022-08-19T19:45:49.231Z,3.13
2022-08-19T19:48:18.572Z,3.13
2022-08-19T19:50:46.609Z,3.20
2022-08-19T19:53:22.278Z,3.00
2022-08-19T19:55:51.581Z,3.60
2022-08-19T19:58:21.313Z,3.10
2022-08-19T20:00:57.881Z,2.77
2022-08-19T20:03:27.844Z,2.90
2022-08-19T20:05:59.221Z,2.83
2022-08-19T20:08:50.947Z,3.20
2022-08-19T20:11:31.056Z,3.30
2022-08-19T20:14:01.092Z,3.40
2022-08-19T20:16:30.143Z,3.77
2022-08-19T20:19:01.338Z,3.33
2022-08-19T20:21:32.379Z,2.80
2022-08-19T20:24:09.503Z,3.77
2022-08-19T20:26:38.185Z,3.80
2022-08-19T20:29:13.792Z,2.90
2022-08-19T20:31:57.576Z,2.90
2022-08-19T20:34:29.035Z,3.20
2022-08-19T20:36:56.929Z,3.40
2022-08-19T20:39:25.110Z,3.30
2022-08-19T20:41:53.008Z,3.10
2022-08-19T20:44:21.385Z,3.10
2022-08-19T20:46:55.503Z,2.90
2022-08-19T20:49:26.823Z,3.00
2022-08-19T20:51:57.157Z,3.20
2022-08-19T20:54:25.477Z,3.47
2022-08-19T20:56:53.443Z,3.73
2022-08-19T20:59:21.814Z,3.37
2022-08-19T21:01:51.718Z,3.20
2022-08-19T21:04:21.233Z,3.30
2022-08-19T21:06:49.161Z,3.10
2022-08-19T21:09:18.476Z,3.03
2022-08-19T21:11:46.425Z,3.00
2022-08-19T21:14:14.515Z,2.97
2022-08-19T21:16:42.411Z,3.30
2022-08-19T21:19:10.330Z,3.30
2022-08-19T21:21:38.247Z,3.30
2022-08-19T21:24:06.577Z,3.50
2022-08-19T21:26:35.875Z,4.13
2022-08-19T21:29:03.850Z,3.30
2022-08-19T21:31:31.789Z,3.53
2022-08-19T21:34:00.940Z,4.10
2022-08-19T21:36:28.883Z,3.33
2022-08-19T21:38:56.765Z,3.60
2022-08-19T21:41:24.847Z,3.97
2022-08-19T21:43:54.112Z,3.50
2022-08-19T21:46:22.594Z,3.47
2022-08-19T21:48:50.506Z,3.80
2022-08-19T21:51:18.427Z,3.60
2022-08-19T21:53:49.081Z,3.63
2022-08-19T21:56:21.163Z,3.90
2022-08-19T21:58:49.098Z,3.73
2022-08-19T22:01:18.501Z,4.10
2022-08-19T22:03:46.628Z,3.60
2022-08-19T22:06:14.586Z,3.83
2022-08-19T22:08:44.701Z,4.73
2022-08-19T22:11:13.092Z,4.03
2022-08-19T22:13:41.227Z,3.77
2022-08-19T22:16:10.577Z,3.00
2022-08-19T22:18:39.809Z,3.80
2022-08-19T22:21:11.623Z,3.47
2022-08-19T22:23:40.618Z,3.70
2022-08-19T22:26:08.984Z,4.73
2022-08-19T22:28:36.901Z,3.50
2022-08-19T22:31:05.949Z,4.27
2022-08-19T22:33:34.432Z,4.00
2022-08-19T22:36:04.513Z,3.70
2022-08-19T22:38:32.572Z,4.00
2022-08-19T22:41:01.004Z,3.87
2022-08-19T22:43:31.809Z,4.17
2022-08-19T22:46:01.136Z,3.70
2022-08-19T22:48:31.327Z,4.07
2022-08-19T22:51:16.899Z,3.90
2022-08-19T22:53:47.722Z,4.10
2022-08-19T22:56:18.597Z,4.70
2022-08-19T22:58:50.217Z,4.50
2022-08-19T23:01:27.631Z,4.27
2022-08-19T23:04:00.037Z,4.17
2022-08-19T23:06:34.517Z,4.70
2022-08-19T23:09:07.740Z,4.00
2022-08-19T23:11:41.904Z,3.90
2022-08-19T23:14:12.404Z,5.03
2022-08-19T23:16:41.680Z,4.53
2022-08-19T23:19:10.037Z,4.53
2022-08-19T23:21:38.123Z,4.40
2022-08-19T23:24:07.747Z,4.07
2022-08-19T23:26:36.264Z,4.43
2022-08-19T23:29:21.928Z,4.40
2022-08-19T23:31:49.941Z,4.50
2022-08-19T23:34:18.209Z,3.90
2022-08-19T23:36:46.351Z,4.77
2022-08-19T23:39:15.563Z,5.00
2022-08-19T23:41:43.561Z,4.60
2022-08-19T23:44:14.694Z,4.00
2022-08-19T23:46:55.378Z,4.90
2022-08-19T23:49:25.806Z,4.40
2022-08-19T23:51:55.221Z,4.97
2022-08-19T23:54:34.268Z,4.67
2022-08-19T23:57:14.146Z,5.10
2022-08-19T23:59:45.125Z,4.60
